sensor_id;sensor_type;location;lat;lon;timestamp;temperature;humidity
30037;DHT22;36325;51.512;-0.382;2023-05-06T00:00:24;12.80;99.90
30037;DHT22;36325;51.512;-0.382;2023-05-06T00:02:52;12.70;99.90
30037;DHT22;36325;51.512;-0.382;2023-05-06T00:05:19;12.70;99.90
30037;DHT22;36325;51.512;-0.382;2023-05-06T00:07:46;12.70;99.90
30037;DHT22;36325;51.512;-0.382;2023-05-06T00:10:14;12.60;99.90
30037;DHT22;36325;51.512;-0.382;2023-05-06T00:12:41;12.60;99.90
30037;DHT22;36325;51.512;-0.382;2023-05-06T00:15:09;12.60;99.90
30037;DHT22;36325;51.512;-0.382;2023-05-06T00:20:05;12.60;99.90
30037;DHT22;36325;51.512;-0.382;2023-05-06T00:22:33;12.60;99.90
30037;DHT22;36325;51.512;-0.382;2023-05-06T00:25:00;12.60;99.90
30037;DHT22;36325;51.512;-0.382;2023-05-06T00:27:28;12.60;99.90
30037;DHT22;36325;51.512;-0.382;2023-05-06T00:29:56;12.50;99.90
30037;DHT22;36325;51.512;-0.382;2023-05-06T00:32:23;12.60;99.90
30037;DHT22;36325;51.512;-0.382;2023-05-06T00:34:51;12.50;99.90
30037;DHT22;36325;51.512;-0.382;2023-05-06T00:37:18;12.50;99.90
30037;DHT22;36325;51.512;-0.382;2023-05-06T00:39:45;12.60;99.90
30037;DHT22;36325;51.512;-0.382;2023-05-06T00:42:12;12.60;99.90
30037;DHT22;36325;51.512;-0.382;2023-05-06T00:44:40;12.60;99.90
30037;DHT22;36325;51.512;-0.382;2023-05-06T00:47:07;12.60;99.90
30037;DHT22;36325;51.512;-0.382;2023-05-06T00:49:35;12.50;99.90
30037;DHT22;36325;51.512;-0.382;2023-05-06T00:52:02;12.50;99.90
30037;DHT22;36325;51.512;-0.382;2023-05-06T00:54:29;12.50;99.90
30037;DHT22;36325;51.512;-0.382;2023-05-06T00:56:57;12.50;99.90
30037;DHT22;36325;51.512;-0.382;2023-05-06T00:59:24;12.40;99.90
30037;DHT22;36325;51.512;-0.382;2023-05-06T01:01:51;12.40;99.90
30037;DHT22;36325;51.512;-0.382;2023-05-06T01:04:21;12.40;99.90
30037;DHT22;36325;51.512;-0.382;2023-05-06T01:07:26;12.40;99.90
30037;DHT22;36325;51.512;-0.382;2023-05-06T01:12:47;12.30;99.90
30037;DHT22;36325;51.512;-0.382;2023-05-06T01:15:21;12.40;99.90
30037;DHT22;36325;51.512;-0.382;2023-05-06T01:17:52;12.40;99.90
30037;DHT22;36325;51.512;-0.382;2023-05-06T01:20:20;12.40;99.90
30037;DHT22;36325;51.512;-0.382;2023-05-06T01:22:48;12.30;99.90
30037;DHT22;36325;51.512;-0.382;2023-05-06T01:25:20;12.30;99.90
30037;DHT22;36325;51.512;-0.382;2023-05-06T01:27:48;12.30;99.90
30037;DHT22;36325;51.512;-0.382;2023-05-06T01:30:17;12.30;99.90
30037;DHT22;36325;51.512;-0.382;2023-05-06T01:33:04;12.30;99.90
30037;DHT22;36325;51.512;-0.382;2023-05-06T01:35:56;12.30;99.90
30037;DHT22;36325;51.512;-0.382;2023-05-06T01:41:01;12.40;99.90
30037;DHT22;36325;51.512;-0.382;2023-05-06T01:43:35;12.40;99.90
30037;DHT22;36325;51.512;-0.382;2023-05-06T01:46:04;12.30;99.90
30037;DHT22;36325;51.512;-0.382;2023-05-06T01:48:34;12.30;99.90
30037;DHT22;36325;51.512;-0.382;2023-05-06T01:53:31;12.30;99.90
30037;DHT22;36325;51.512;-0.382;2023-05-06T01:55:59;12.30;99.90
30037;DHT22;36325;51.512;-0.382;2023-05-06T01:58:26;12.30;99.90
30037;DHT22;36325;51.512;-0.382;2023-05-06T02:00:54;12.30;99.90
30037;DHT22;36325;51.512;-0.382;2023-05-06T02:03:21;12.20;99.90
30037;DHT22;36325;51.512;-0.382;2023-05-06T02:05:49;12.20;99.90
30037;DHT22;36325;51.512;-0.382;2023-05-06T02:08:16;12.20;99.90
30037;DHT22;36325;51.512;-0.382;2023-05-06T02:13:12;12.10;99.90
30037;DHT22;36325;51.512;-0.382;2023-05-06T02:15:39;12.10;99.90
30037;DHT22;36325;51.512;-0.382;2023-05-06T02:18:11;12.10;99.90
30037;DHT22;36325;51.512;-0.382;2023-05-06T02:20:38;12.10;99.90
30037;DHT22;36325;51.512;-0.382;2023-05-06T02:25:34;12.00;99.90
30037;DHT22;36325;51.512;-0.382;2023-05-06T02:28:01;12.10;99.90
30037;DHT22;36325;51.512;-0.382;2023-05-06T02:30:28;12.00;99.90
30037;DHT22;36325;51.512;-0.382;2023-05-06T02:35:24;12.00;99.90
30037;DHT22;36325;51.512;-0.382;2023-05-06T02:37:52;12.00;99.90
30037;DHT22;36325;51.512;-0.382;2023-05-06T02:40:19;11.90;99.90
30037;DHT22;36325;51.512;-0.382;2023-05-06T02:42:46;12.00;99.90
30037;DHT22;36325;51.512;-0.382;2023-05-06T02:45:13;11.90;99.90
30037;DHT22;36325;51.512;-0.382;2023-05-06T02:47:40;11.90;99.90
30037;DHT22;36325;51.512;-0.382;2023-05-06T02:50:09;11.90;99.90
30037;DHT22;36325;51.512;-0.382;2023-05-06T02:52:36;11.90;99.90
30037;DHT22;36325;51.512;-0.382;2023-05-06T02:55:05;11.90;99.90
30037;DHT22;36325;51.512;-0.382;2023-05-06T02:57:32;11.90;99.90
30037;DHT22;36325;51.512;-0.382;2023-05-06T02:59:59;11.80;99.90
30037;DHT22;36325;51.512;-0.382;2023-05-06T03:02:26;11.80;99.90
30037;DHT22;36325;51.512;-0.382;2023-05-06T03:04:54;11.80;99.90
30037;DHT22;36325;51.512;-0.382;2023-05-06T03:07:21;11.80;99.90
30037;DHT22;36325;51.512;-0.382;2023-05-06T03:09:48;11.80;99.90
30037;DHT22;36325;51.512;-0.382;2023-05-06T03:12:15;11.80;99.90
30037;DHT22;36325;51.512;-0.382;2023-05-06T03:14:43;11.80;99.90
30037;DHT22;36325;51.512;-0.382;2023-05-06T03:17:10;11.80;99.90
30037;DHT22;36325;51.512;-0.382;2023-05-06T03:19:38;11.80;99.90
30037;DHT22;36325;51.512;-0.382;2023-05-06T03:24:39;11.70;99.90
30037;DHT22;36325;51.512;-0.382;2023-05-06T03:27:06;11.70;99.90
30037;DHT22;36325;51.512;-0.382;2023-05-06T03:29:33;10.90;99.90
30037;DHT22;36325;51.512;-0.382;2023-05-06T03:32:02;11.70;99.90
30037;DHT22;36325;51.512;-0.382;2023-05-06T03:34:34;11.70;99.90
30037;DHT22;36325;51.512;-0.382;2023-05-06T03:37:02;11.70;99.90
30037;DHT22;36325;51.512;-0.382;2023-05-06T03:39:29;11.70;99.90
30037;DHT22;36325;51.512;-0.382;2023-05-06T03:41:59;13.20;99.90
30037;DHT22;36325;51.512;-0.382;2023-05-06T03:44:26;11.70;99.90
30037;DHT22;36325;51.512;-0.382;2023-05-06T03:46:53;11.70;99.90
30037;DHT22;36325;51.512;-0.382;2023-05-06T03:49:20;11.70;99.90
30037;DHT22;36325;51.512;-0.382;2023-05-06T03:54:17;11.60;99.90
30037;DHT22;36325;51.512;-0.382;2023-05-06T03:56:46;11.60;99.90
30037;DHT22;36325;51.512;-0.382;2023-05-06T03:59:14;11.70;99.90
30037;DHT22;36325;51.512;-0.382;2023-05-06T04:01:41;11.70;99.90
30037;DHT22;36325;51.512;-0.382;2023-05-06T04:04:11;11.70;99.90
30037;DHT22;36325;51.512;-0.382;2023-05-06T04:06:38;11.70;99.90
30037;DHT22;36325;51.512;-0.382;2023-05-06T04:09:05;11.80;99.90
30037;DHT22;36325;51.512;-0.382;2023-05-06T04:11:35;11.70;99.90
30037;DHT22;36325;51.512;-0.382;2023-05-06T04:14:04;11.70;99.90
30037;DHT22;36325;51.512;-0.382;2023-05-06T04:16:31;11.70;99.90
30037;DHT22;36325;51.512;-0.382;2023-05-06T04:18:59;11.70;99.90
30037;DHT22;36325;51.512;-0.382;2023-05-06T04:21:27;11.80;99.90
30037;DHT22;36325;51.512;-0.382;2023-05-06T04:24:01;11.70;99.90
30037;DHT22;36325;51.512;-0.382;2023-05-06T04:26:35;11.70;99.90
30037;DHT22;36325;51.512;-0.382;2023-05-06T04:29:03;11.70;99.90
30037;DHT22;36325;51.512;-0.382;2023-05-06T04:31:33;13.90;99.90
30037;DHT22;36325;51.512;-0.382;2023-05-06T04:34:03;11.80;99.90
30037;DHT22;36325;51.512;-0.382;2023-05-06T04:36:31;11.80;99.90
30037;DHT22;36325;51.512;-0.382;2023-05-06T04:39:16;11.80;99.90
30037;DHT22;36325;51.512;-0.382;2023-05-06T04:41:46;11.80;99.90
30037;DHT22;36325;51.512;-0.382;2023-05-06T04:44:18;11.80;99.90
30037;DHT22;36325;51.512;-0.382;2023-05-06T04:46:46;11.80;99.90
30037;DHT22;36325;51.512;-0.382;2023-05-06T04:49:15;11.90;99.90
30037;DHT22;36325;51.512;-0.382;2023-05-06T04:51:43;11.90;99.90
30037;DHT22;36325;51.512;-0.382;2023-05-06T04:54:10;11.90;99.90
30037;DHT22;36325;51.512;-0.382;2023-05-06T04:56:39;11.90;99.90
30037;DHT22;36325;51.512;-0.382;2023-05-06T04:59:10;12.00;99.90
30037;DHT22;36325;51.512;-0.382;2023-05-06T05:01:39;12.00;99.90
30037;DHT22;36325;51.512;-0.382;2023-05-06T05:04:07;12.00;99.90
30037;DHT22;36325;51.512;-0.382;2023-05-06T05:06:34;12.00;99.90
30037;DHT22;36325;51.512;-0.382;2023-05-06T05:09:01;12.10;99.90
30037;DHT22;36325;51.512;-0.382;2023-05-06T05:11:29;12.20;99.90
30037;DHT22;36325;51.512;-0.382;2023-05-06T05:13:58;12.20;99.90
30037;DHT22;36325;51.512;-0.382;2023-05-06T05:16:28;12.20;99.90
30037;DHT22;36325;51.512;-0.382;2023-05-06T05:18:55;12.30;99.90
30037;DHT22;36325;51.512;-0.382;2023-05-06T05:21:26;12.30;99.90
30037;DHT22;36325;51.512;-0.382;2023-05-06T05:23:56;12.40;99.90
30037;DHT22;36325;51.512;-0.382;2023-05-06T05:26:23;12.40;99.90
30037;DHT22;36325;51.512;-0.382;2023-05-06T05:28:52;12.50;99.90
30037;DHT22;36325;51.512;-0.382;2023-05-06T05:31:19;12.50;99.90
30037;DHT22;36325;51.512;-0.382;2023-05-06T05:33:48;12.60;99.90
30037;DHT22;36325;51.512;-0.382;2023-05-06T05:36:18;12.60;99.90
30037;DHT22;36325;51.512;-0.382;2023-05-06T05:38:50;12.70;99.90
30037;DHT22;36325;51.512;-0.382;2023-05-06T05:41:18;12.70;99.90
30037;DHT22;36325;51.512;-0.382;2023-05-06T05:43:46;12.80;99.90
30037;DHT22;36325;51.512;-0.382;2023-05-06T05:46:14;12.70;99.90
30037;DHT22;36325;51.512;-0.382;2023-05-06T05:48:44;12.80;99.90
30037;DHT22;36325;51.512;-0.382;2023-05-06T05:51:12;12.90;99.90
30037;DHT22;36325;51.512;-0.382;2023-05-06T05:53:40;12.90;99.90
30037;DHT22;36325;51.512;-0.382;2023-05-06T05:56:09;12.90;99.90
30037;DHT22;36325;51.512;-0.382;2023-05-06T05:58:37;13.00;99.90
30037;DHT22;36325;51.512;-0.382;2023-05-06T06:01:05;13.10;99.90
30037;DHT22;36325;51.512;-0.382;2023-05-06T06:03:32;13.10;99.90
30037;DHT22;36325;51.512;-0.382;2023-05-06T06:05:59;13.30;99.90
30037;DHT22;36325;51.512;-0.382;2023-05-06T06:08:27;13.30;99.90
30037;DHT22;36325;51.512;-0.382;2023-05-06T06:10:57;13.40;99.90
30037;DHT22;36325;51.512;-0.382;2023-05-06T06:13:30;13.50;99.90
30037;DHT22;36325;51.512;-0.382;2023-05-06T06:15:58;13.60;99.90
30037;DHT22;36325;51.512;-0.382;2023-05-06T06:18:26;13.70;99.90
30037;DHT22;36325;51.512;-0.382;2023-05-06T06:20:53;13.80;99.90
30037;DHT22;36325;51.512;-0.382;2023-05-06T06:23:21;13.90;99.90
30037;DHT22;36325;51.512;-0.382;2023-05-06T06:25:48;14.00;99.90
30037;DHT22;36325;51.512;-0.382;2023-05-06T06:28:15;14.00;99.90
30037;DHT22;36325;51.512;-0.382;2023-05-06T06:30:44;14.10;99.90
30037;DHT22;36325;51.512;-0.382;2023-05-06T06:35:39;14.10;99.90
30037;DHT22;36325;51.512;-0.382;2023-05-06T06:38:06;14.20;99.90
30037;DHT22;36325;51.512;-0.382;2023-05-06T06:40:34;14.20;99.90
30037;DHT22;36325;51.512;-0.382;2023-05-06T06:43:01;14.30;99.90
30037;DHT22;36325;51.512;-0.382;2023-05-06T06:45:46;14.30;99.90
30037;DHT22;36325;51.512;-0.382;2023-05-06T06:48:14;14.40;99.90
30037;DHT22;36325;51.512;-0.382;2023-05-06T06:50:42;14.50;99.90
30037;DHT22;36325;51.512;-0.382;2023-05-06T06:53:09;14.50;99.90
30037;DHT22;36325;51.512;-0.382;2023-05-06T06:55:37;14.40;99.90
30037;DHT22;36325;51.512;-0.382;2023-05-06T06:58:04;14.50;99.90
30037;DHT22;36325;51.512;-0.382;2023-05-06T07:02:59;14.50;99.90
30037;DHT22;36325;51.512;-0.382;2023-05-06T07:05:26;14.50;99.90
30037;DHT22;36325;51.512;-0.382;2023-05-06T07:07:53;14.50;99.90
30037;DHT22;36325;51.512;-0.382;2023-05-06T07:10:21;14.50;99.90
30037;DHT22;36325;51.512;-0.382;2023-05-06T07:12:49;14.50;99.90
30037;DHT22;36325;51.512;-0.382;2023-05-06T07:15:16;14.50;99.90
30037;DHT22;36325;51.512;-0.382;2023-05-06T07:17:43;14.50;99.90
30037;DHT22;36325;51.512;-0.382;2023-05-06T07:20:11;14.60;99.90
30037;DHT22;36325;51.512;-0.382;2023-05-06T07:22:38;14.60;99.90
30037;DHT22;36325;51.512;-0.382;2023-05-06T07:25:07;14.60;99.90
30037;DHT22;36325;51.512;-0.382;2023-05-06T07:27:35;14.60;99.90
30037;DHT22;36325;51.512;-0.382;2023-05-06T07:30:02;14.70;99.90
30037;DHT22;36325;51.512;-0.382;2023-05-06T07:32:29;14.80;99.90
30037;DHT22;36325;51.512;-0.382;2023-05-06T07:34:57;14.80;99.90
30037;DHT22;36325;51.512;-0.382;2023-05-06T07:37:24;14.80;99.90
30037;DHT22;36325;51.512;-0.382;2023-05-06T07:39:51;14.90;99.90
30037;DHT22;36325;51.512;-0.382;2023-05-06T07:42:23;15.10;99.90
30037;DHT22;36325;51.512;-0.382;2023-05-06T07:44:50;15.10;99.90
30037;DHT22;36325;51.512;-0.382;2023-05-06T07:47:28;15.30;99.90
30037;DHT22;36325;51.512;-0.382;2023-05-06T07:49:55;15.30;99.90
30037;DHT22;36325;51.512;-0.382;2023-05-06T07:52:23;15.50;99.90
30037;DHT22;36325;51.512;-0.382;2023-05-06T07:54:51;15.60;99.90
30037;DHT22;36325;51.512;-0.382;2023-05-06T07:57:18;15.70;99.90
30037;DHT22;36325;51.512;-0.382;2023-05-06T07:59:48;15.80;99.90
30037;DHT22;36325;51.512;-0.382;2023-05-06T08:02:15;15.80;99.90
30037;DHT22;36325;51.512;-0.382;2023-05-06T08:04:43;15.80;99.90
30037;DHT22;36325;51.512;-0.382;2023-05-06T08:07:11;15.80;99.90
30037;DHT22;36325;51.512;-0.382;2023-05-06T08:09:38;15.80;99.90
30037;DHT22;36325;51.512;-0.382;2023-05-06T08:12:05;15.70;99.90
30037;DHT22;36325;51.512;-0.382;2023-05-06T08:14:33;15.70;99.90
30037;DHT22;36325;51.512;-0.382;2023-05-06T08:17:01;15.50;99.90
30037;DHT22;36325;51.512;-0.382;2023-05-06T08:19:29;15.40;99.90
30037;DHT22;36325;51.512;-0.382;2023-05-06T08:21:56;15.30;99.90
30037;DHT22;36325;51.512;-0.382;2023-05-06T08:24:23;15.30;99.90
30037;DHT22;36325;51.512;-0.382;2023-05-06T08:26:51;15.30;99.90
30037;DHT22;36325;51.512;-0.382;2023-05-06T08:29:18;15.30;99.90
30037;DHT22;36325;51.512;-0.382;2023-05-06T08:31:46;15.20;99.90
30037;DHT22;36325;51.512;-0.382;2023-05-06T08:34:14;15.10;99.90
30037;DHT22;36325;51.512;-0.382;2023-05-06T08:36:44;15.10;99.90
30037;DHT22;36325;51.512;-0.382;2023-05-06T08:39:11;14.90;99.90
30037;DHT22;36325;51.512;-0.382;2023-05-06T08:41:46;14.90;99.90
30037;DHT22;36325;51.512;-0.382;2023-05-06T08:44:18;14.90;99.90
30037;DHT22;36325;51.512;-0.382;2023-05-06T08:46:46;15.00;99.90
30037;DHT22;36325;51.512;-0.382;2023-05-06T08:49:13;12.10;99.90
30037;DHT22;36325;51.512;-0.382;2023-05-06T08:51:44;15.30;99.90
30037;DHT22;36325;51.512;-0.382;2023-05-06T08:54:12;15.30;99.90
30037;DHT22;36325;51.512;-0.382;2023-05-06T08:56:44;15.30;99.90
30037;DHT22;36325;51.512;-0.382;2023-05-06T08:59:11;15.30;99.90
30037;DHT22;36325;51.512;-0.382;2023-05-06T09:01:40;15.20;99.90
30037;DHT22;36325;51.512;-0.382;2023-05-06T09:04:07;15.10;99.90
30037;DHT22;36325;51.512;-0.382;2023-05-06T09:06:35;15.00;99.90
30037;DHT22;36325;51.512;-0.382;2023-05-06T09:09:03;15.00;99.90
30037;DHT22;36325;51.512;-0.382;2023-05-06T09:11:30;14.90;99.90
30037;DHT22;36325;51.512;-0.382;2023-05-06T09:14:07;14.90;99.90
30037;DHT22;36325;51.512;-0.382;2023-05-06T09:16:36;14.80;99.90
30037;DHT22;36325;51.512;-0.382;2023-05-06T09:19:03;14.70;99.90
30037;DHT22;36325;51.512;-0.382;2023-05-06T09:21:33;14.70;99.90
30037;DHT22;36325;51.512;-0.382;2023-05-06T09:24:02;14.70;99.90
30037;DHT22;36325;51.512;-0.382;2023-05-06T09:26:30;14.80;99.90
30037;DHT22;36325;51.512;-0.382;2023-05-06T09:28:58;14.80;99.90
30037;DHT22;36325;51.512;-0.382;2023-05-06T09:31:27;14.70;99.90
30037;DHT22;36325;51.512;-0.382;2023-05-06T09:33:55;14.80;99.90
30037;DHT22;36325;51.512;-0.382;2023-05-06T09:36:26;14.80;99.90
30037;DHT22;36325;51.512;-0.382;2023-05-06T09:39:02;14.90;99.90
30037;DHT22;36325;51.512;-0.382;2023-05-06T09:41:37;14.90;99.90
30037;DHT22;36325;51.512;-0.382;2023-05-06T09:44:05;15.00;99.90
30037;DHT22;36325;51.512;-0.382;2023-05-06T09:46:32;14.80;99.90
30037;DHT22;36325;51.512;-0.382;2023-05-06T09:49:00;15.20;99.90
30037;DHT22;36325;51.512;-0.382;2023-05-06T09:51:29;15.30;99.90
30037;DHT22;36325;51.512;-0.382;2023-05-06T09:53:57;15.30;99.90
30037;DHT22;36325;51.512;-0.382;2023-05-06T09:56:26;15.30;99.90
30037;DHT22;36325;51.512;-0.382;2023-05-06T09:58:54;15.30;99.90
30037;DHT22;36325;51.512;-0.382;2023-05-06T10:01:22;15.30;99.90
30037;DHT22;36325;51.512;-0.382;2023-05-06T10:04:04;15.20;99.90
30037;DHT22;36325;51.512;-0.382;2023-05-06T10:06:39;15.20;99.90
30037;DHT22;36325;51.512;-0.382;2023-05-06T10:09:09;15.20;99.90
30037;DHT22;36325;51.512;-0.382;2023-05-06T10:11:37;15.10;99.90
30037;DHT22;36325;51.512;-0.382;2023-05-06T10:14:05;15.00;99.90
30037;DHT22;36325;51.512;-0.382;2023-05-06T10:16:33;14.90;99.90
30037;DHT22;36325;51.512;-0.382;2023-05-06T10:19:03;14.90;99.90
30037;DHT22;36325;51.512;-0.382;2023-05-06T10:21:35;14.90;99.90
30037;DHT22;36325;51.512;-0.382;2023-05-06T10:24:06;14.90;99.90
30037;DHT22;36325;51.512;-0.382;2023-05-06T10:26:38;14.80;99.90
30037;DHT22;36325;51.512;-0.382;2023-05-06T10:29:09;14.70;99.90
30037;DHT22;36325;51.512;-0.382;2023-05-06T10:31:52;14.70;99.90
30037;DHT22;36325;51.512;-0.382;2023-05-06T10:34:21;14.80;99.90
30037;DHT22;36325;51.512;-0.382;2023-05-06T10:36:55;14.80;99.90
30037;DHT22;36325;51.512;-0.382;2023-05-06T10:39:24;14.90;99.90
30037;DHT22;36325;51.512;-0.382;2023-05-06T10:41:52;14.90;99.90
30037;DHT22;36325;51.512;-0.382;2023-05-06T10:44:58;14.80;99.90
30037;DHT22;36325;51.512;-0.382;2023-05-06T10:47:26;14.80;99.90
30037;DHT22;36325;51.512;-0.382;2023-05-06T10:50:22;14.80;99.90
30037;DHT22;36325;51.512;-0.382;2023-05-06T10:52:58;14.80;99.90
30037;DHT22;36325;51.512;-0.382;2023-05-06T10:55:33;14.90;99.90
30037;DHT22;36325;51.512;-0.382;2023-05-06T10:58:13;14.90;99.90
30037;DHT22;36325;51.512;-0.382;2023-05-06T11:00:52;14.80;99.90
30037;DHT22;36325;51.512;-0.382;2023-05-06T11:03:22;14.80;99.90
30037;DHT22;36325;51.512;-0.382;2023-05-06T11:05:51;14.70;99.90
30037;DHT22;36325;51.512;-0.382;2023-05-06T11:08:25;14.70;99.90
30037;DHT22;36325;51.512;-0.382;2023-05-06T11:10:53;14.70;99.90
30037;DHT22;36325;51.512;-0.382;2023-05-06T11:13:28;14.70;99.90
30037;DHT22;36325;51.512;-0.382;2023-05-06T11:15:56;14.70;99.90
30037;DHT22;36325;51.512;-0.382;2023-05-06T11:26:08;14.70;99.90
30037;DHT22;36325;51.512;-0.382;2023-05-06T11:28:37;14.80;99.90
30037;DHT22;36325;51.512;-0.382;2023-05-06T11:31:05;14.80;99.90
30037;DHT22;36325;51.512;-0.382;2023-05-06T11:33:34;14.90;99.90
30037;DHT22;36325;51.512;-0.382;2023-05-06T11:36:05;14.90;99.90
30037;DHT22;36325;51.512;-0.382;2023-05-06T11:38:44;14.90;99.90
30037;DHT22;36325;51.512;-0.382;2023-05-06T11:41:12;14.80;99.90
30037;DHT22;36325;51.512;-0.382;2023-05-06T11:43:48;14.90;99.90
30037;DHT22;36325;51.512;-0.382;2023-05-06T11:46:20;15.00;99.90
30037;DHT22;36325;51.512;-0.382;2023-05-06T11:48:48;15.00;99.90
30037;DHT22;36325;51.512;-0.382;2023-05-06T11:51:21;15.10;99.90
30037;DHT22;36325;51.512;-0.382;2023-05-06T11:53:48;15.10;99.90
30037;DHT22;36325;51.512;-0.382;2023-05-06T11:56:15;15.20;99.90
30037;DHT22;36325;51.512;-0.382;2023-05-06T11:58:42;15.30;99.90
30037;DHT22;36325;51.512;-0.382;2023-05-06T12:01:12;15.40;99.90
30037;DHT22;36325;51.512;-0.382;2023-05-06T12:03:39;15.30;99.90
30037;DHT22;36325;51.512;-0.382;2023-05-06T12:06:07;15.40;99.90
30037;DHT22;36325;51.512;-0.382;2023-05-06T12:08:35;15.40;99.90
30037;DHT22;36325;51.512;-0.382;2023-05-06T12:11:05;15.40;99.90
30037;DHT22;36325;51.512;-0.382;2023-05-06T12:13:33;15.40;99.90
30037;DHT22;36325;51.512;-0.382;2023-05-06T12:16:04;15.50;99.90
30037;DHT22;36325;51.512;-0.382;2023-05-06T12:18:32;15.50;99.90
30037;DHT22;36325;51.512;-0.382;2023-05-06T12:21:03;15.50;99.90
30037;DHT22;36325;51.512;-0.382;2023-05-06T12:26:03;15.50;99.90
30037;DHT22;36325;51.512;-0.382;2023-05-06T12:28:31;15.40;99.90
30037;DHT22;36325;51.512;-0.382;2023-05-06T12:31:00;15.50;99.90
30037;DHT22;36325;51.512;-0.382;2023-05-06T12:33:44;15.50;99.90
30037;DHT22;36325;51.512;-0.382;2023-05-06T12:36:12;15.40;99.90
30037;DHT22;36325;51.512;-0.382;2023-05-06T12:38:52;15.40;99.90
30037;DHT22;36325;51.512;-0.382;2023-05-06T12:41:19;15.40;99.90
30037;DHT22;36325;51.512;-0.382;2023-05-06T12:43:47;15.30;99.90
30037;DHT22;36325;51.512;-0.382;2023-05-06T12:46:15;15.20;99.90
30037;DHT22;36325;51.512;-0.382;2023-05-06T12:48:59;15.20;99.90
30037;DHT22;36325;51.512;-0.382;2023-05-06T12:51:27;15.10;99.90
30037;DHT22;36325;51.512;-0.382;2023-05-06T12:53:56;15.10;99.90
30037;DHT22;36325;51.512;-0.382;2023-05-06T12:56:24;15.10;99.90
30037;DHT22;36325;51.512;-0.382;2023-05-06T12:59:01;15.30;99.90
30037;DHT22;36325;51.512;-0.382;2023-05-06T13:01:28;15.30;99.90
30037;DHT22;36325;51.512;-0.382;2023-05-06T13:03:57;15.40;99.90
30037;DHT22;36325;51.512;-0.382;2023-05-06T13:06:24;15.40;99.90
30037;DHT22;36325;51.512;-0.382;2023-05-06T13:08:51;15.50;99.90
30037;DHT22;36325;51.512;-0.382;2023-05-06T13:11:19;15.40;99.90
30037;DHT22;36325;51.512;-0.382;2023-05-06T13:13:48;15.40;99.90
30037;DHT22;36325;51.512;-0.382;2023-05-06T13:16:15;15.30;99.90
30037;DHT22;36325;51.512;-0.382;2023-05-06T13:18:42;15.30;99.90
30037;DHT22;36325;51.512;-0.382;2023-05-06T13:21:09;15.30;99.90
30037;DHT22;36325;51.512;-0.382;2023-05-06T13:23:40;15.30;99.90
30037;DHT22;36325;51.512;-0.382;2023-05-06T13:26:13;15.40;99.90
30037;DHT22;36325;51.512;-0.382;2023-05-06T13:28:40;15.30;99.90
30037;DHT22;36325;51.512;-0.382;2023-05-06T13:31:07;15.40;99.90
30037;DHT22;36325;51.512;-0.382;2023-05-06T13:33:35;15.30;99.90
30037;DHT22;36325;51.512;-0.382;2023-05-06T13:36:03;15.30;99.90
30037;DHT22;36325;51.512;-0.382;2023-05-06T13:38:31;15.30;99.90
30037;DHT22;36325;51.512;-0.382;2023-05-06T13:40:58;15.20;99.90
30037;DHT22;36325;51.512;-0.382;2023-05-06T13:43:25;15.10;99.90
30037;DHT22;36325;51.512;-0.382;2023-05-06T13:45:53;15.00;99.90
30037;DHT22;36325;51.512;-0.382;2023-05-06T13:48:20;14.90;99.90
30037;DHT22;36325;51.512;-0.382;2023-05-06T13:50:47;14.80;99.90
30037;DHT22;36325;51.512;-0.382;2023-05-06T13:53:14;14.80;99.90
30037;DHT22;36325;51.512;-0.382;2023-05-06T13:55:42;14.70;99.90
30037;DHT22;36325;51.512;-0.382;2023-05-06T13:58:09;14.70;99.90
30037;DHT22;36325;51.512;-0.382;2023-05-06T14:00:38;14.60;99.90
30037;DHT22;36325;51.512;-0.382;2023-05-06T14:03:05;14.50;99.90
30037;DHT22;36325;51.512;-0.382;2023-05-06T14:05:33;14.50;99.90
30037;DHT22;36325;51.512;-0.382;2023-05-06T14:08:00;14.50;99.90
30037;DHT22;36325;51.512;-0.382;2023-05-06T14:10:28;14.40;99.90
30037;DHT22;36325;51.512;-0.382;2023-05-06T14:12:55;14.50;99.90
30037;DHT22;36325;51.512;-0.382;2023-05-06T14:15:22;14.50;99.90
30037;DHT22;36325;51.512;-0.382;2023-05-06T14:17:49;14.50;99.90
30037;DHT22;36325;51.512;-0.382;2023-05-06T14:20:16;14.40;99.90
30037;DHT22;36325;51.512;-0.382;2023-05-06T14:22:43;14.40;99.90
30037;DHT22;36325;51.512;-0.382;2023-05-06T14:25:11;14.40;99.90
30037;DHT22;36325;51.512;-0.382;2023-05-06T14:27:38;14.40;99.90
30037;DHT22;36325;51.512;-0.382;2023-05-06T14:30:06;14.40;99.90
30037;DHT22;36325;51.512;-0.382;2023-05-06T14:35:03;14.50;99.90
30037;DHT22;36325;51.512;-0.382;2023-05-06T14:37:31;14.50;99.90
30037;DHT22;36325;51.512;-0.382;2023-05-06T14:39:58;14.50;99.90
30037;DHT22;36325;51.512;-0.382;2023-05-06T14:42:25;14.40;99.90
30037;DHT22;36325;51.512;-0.382;2023-05-06T14:44:52;14.50;99.90
30037;DHT22;36325;51.512;-0.382;2023-05-06T14:47:20;14.40;99.90
30037;DHT22;36325;51.512;-0.382;2023-05-06T14:49:48;14.40;99.90
30037;DHT22;36325;51.512;-0.382;2023-05-06T14:52:16;14.40;99.90
30037;DHT22;36325;51.512;-0.382;2023-05-06T14:54:43;14.40;99.90
30037;DHT22;36325;51.512;-0.382;2023-05-06T14:57:10;14.30;99.90
30037;DHT22;36325;51.512;-0.382;2023-05-06T14:59:37;14.30;99.90
30037;DHT22;36325;51.512;-0.382;2023-05-06T15:02:07;14.30;99.90
30037;DHT22;36325;51.512;-0.382;2023-05-06T15:04:35;14.30;99.90
30037;DHT22;36325;51.512;-0.382;2023-05-06T15:07:02;14.30;99.90
30037;DHT22;36325;51.512;-0.382;2023-05-06T15:09:30;14.30;99.90
30037;DHT22;36325;51.512;-0.382;2023-05-06T15:11:57;14.30;99.90
30037;DHT22;36325;51.512;-0.382;2023-05-06T15:14:24;14.40;99.90
30037;DHT22;36325;51.512;-0.382;2023-05-06T15:16:55;14.40;99.90
30037;DHT22;36325;51.512;-0.382;2023-05-06T15:19:23;14.50;99.90
30037;DHT22;36325;51.512;-0.382;2023-05-06T15:21:50;14.50;99.90
30037;DHT22;36325;51.512;-0.382;2023-05-06T15:24:17;14.40;99.90
30037;DHT22;36325;51.512;-0.382;2023-05-06T15:26:45;14.40;99.90
30037;DHT22;36325;51.512;-0.382;2023-05-06T15:29:12;14.40;99.90
30037;DHT22;36325;51.512;-0.382;2023-05-06T15:31:42;14.40;99.90
30037;DHT22;36325;51.512;-0.382;2023-05-06T15:34:10;14.40;99.90
30037;DHT22;36325;51.512;-0.382;2023-05-06T15:36:39;14.50;99.90
30037;DHT22;36325;51.512;-0.382;2023-05-06T15:39:07;14.40;99.90
30037;DHT22;36325;51.512;-0.382;2023-05-06T15:41:36;14.50;99.90
30037;DHT22;36325;51.512;-0.382;2023-05-06T15:44:03;14.40;99.90
30037;DHT22;36325;51.512;-0.382;2023-05-06T15:46:32;14.50;99.90
30037;DHT22;36325;51.512;-0.382;2023-05-06T15:48:59;14.50;99.90
30037;DHT22;36325;51.512;-0.382;2023-05-06T15:51:30;14.50;99.90
30037;DHT22;36325;51.512;-0.382;2023-05-06T15:53:57;14.50;99.90
30037;DHT22;36325;51.512;-0.382;2023-05-06T15:56:24;14.60;99.90
30037;DHT22;36325;51.512;-0.382;2023-05-06T15:58:53;14.60;99.90
30037;DHT22;36325;51.512;-0.382;2023-05-06T16:01:21;14.60;99.90
30037;DHT22;36325;51.512;-0.382;2023-05-06T16:04:08;14.70;99.90
30037;DHT22;36325;51.512;-0.382;2023-05-06T16:06:35;14.70;99.90